createdAt,value
2023-05-10T00:00:02.181Z,65.67343353582137
2023-05-10T00:15:01.828Z,65.39003799255407
2023-05-10T00:30:02.629Z,65.04647689062182
2023-05-10T00:45:02.241Z,64.94395830156878
2023-05-10T01:00:01.874Z,65.10403797684324
2023-05-10T01:15:02.523Z,65.2448766981377
2023-05-10T01:30:17.291Z,65.14580722683527
2023-05-10T01:45:01.990Z,65.55213009746998
2023-05-10T02:00:01.644Z,66.76464742677945
2023-05-10T02:15:02.243Z,67.73183797970133
2023-05-10T02:30:01.885Z,67.37354909917752
2023-05-10T02:45:02.499Z,68.65403625362147
2023-05-10T03:00:02.114Z,68.81443970246283
2023-05-10T03:15:01.751Z,68.44937443568813
2023-05-10T03:30:02.427Z,68.7012457177853
2023-05-10T03:45:01.998Z,69.50861639166645
2023-05-10T04:00:01.619Z,69.22485726080966
2023-05-10T04:15:02.255Z,68.99645813065663
2023-05-10T04:30:02.458Z,69.76583674918118
2023-05-10T04:45:02.049Z,70.06737192479497
2023-05-10T05:00:01.699Z,69.81117423366713
2023-05-10T05:15:02.360Z,69.61875795951734
2023-05-10T05:30:02.019Z,70.2576435598843
2023-05-10T05:45:01.636Z,70.16747332864817
2023-05-10T06:00:02.346Z,70.35130271209843
2023-05-10T06:15:02.018Z,70.60387376983049
2023-05-10T06:30:12.359Z,71.10141289134415
2023-05-10T06:45:02.364Z,70.02557975946526
2023-05-10T07:00:02.041Z,69.73296368136559
2023-05-10T07:15:01.718Z,70.25498776686473
2023-05-10T07:30:02.371Z,69.71942068568507
2023-05-10T07:45:02.044Z,70.00420967816832
2023-05-10T08:00:01.688Z,69.7283384458464
2023-05-10T08:15:02.291Z,70.0020013010401
2023-05-10T08:30:01.984Z,70.69833953519112
2023-05-10T08:45:01.588Z,70.3258067281826
2023-05-10T09:00:02.222Z,69.655225729668
2023-05-10T09:15:01.834Z,69.09928867207805
2023-05-10T09:30:02.507Z,68.68680178176402
2023-05-10T09:45:02.181Z,68.28167021037162
2023-05-10T10:00:01.862Z,67.85272534074524
2023-05-10T10:15:02.494Z,67.09567322890626
2023-05-10T10:30:02.180Z,66.99792041825725
2023-05-10T10:45:01.799Z,65.44073251398126
2023-05-10T11:00:02.459Z,65.1300685219271
2023-05-10T11:15:02.053Z,63.02525445846362
2023-05-10T11:30:03.736Z,62.924459717267645
2023-05-10T11:45:02.523Z,61.44305448327051
2023-05-10T12:00:02.152Z,62.771543813557045
2023-05-10T12:15:01.802Z,61.864452949924875
2023-05-10T12:30:02.453Z,60.05966045390793
2023-05-10T12:45:02.080Z,59.034181237013925
2023-05-10T13:00:01.763Z,58.3613320106927
2023-05-10T13:15:02.376Z,58.450735404921694
2023-05-10T13:30:02.075Z,56.96416274707986
2023-05-10T13:45:01.691Z,57.19154032191894
2023-05-10T14:00:02.348Z,56.60073711938547
2023-05-10T14:15:01.970Z,57.03483108192794
2023-05-10T14:30:01.687Z,55.78703200902679
2023-05-10T14:45:02.354Z,56.60071460371419
2023-05-10T15:00:02.008Z,56.725921430115875
2023-05-10T15:15:02.147Z,54.94535337058359
2023-05-10T15:30:01.811Z,54.755561617662394
2023-05-10T15:45:02.459Z,53.87279226827355
2023-05-10T16:00:02.253Z,54.401025872856785
2023-05-10T16:15:01.908Z,54.55890337219755
2023-05-10T16:30:01.711Z,54.441974690620654
2023-05-10T16:45:02.468Z,54.17938014077601
2023-05-10T17:00:02.058Z,55.50994199102175
2023-05-10T17:15:01.738Z,53.726729627429876
2023-05-10T17:30:02.450Z,55.01525771010226
2023-05-10T17:45:02.064Z,56.0922231299525
2023-05-10T18:00:01.677Z,55.90030051535344
2023-05-10T18:15:02.312Z,56.736855969185335
2023-05-10T18:30:01.996Z,57.1907928781974
2023-05-10T18:45:01.643Z,56.78832645629936
2023-05-10T19:00:02.321Z,57.65416461013187
2023-05-10T19:15:01.963Z,58.39921510166458
2023-05-10T19:30:01.785Z,59.73921796273667
2023-05-10T19:45:02.413Z,59.707372626993944
2023-05-10T20:00:01.999Z,59.98879805434576
2023-05-10T20:15:01.657Z,60.28159453292992
2023-05-10T20:30:02.287Z,60.42236775696996
2023-05-10T20:45:01.935Z,60.78279495851471
2023-05-10T21:00:01.612Z,61.197258904945066
2023-05-10T21:15:02.260Z,61.217461656536415
2023-05-10T21:30:01.939Z,61.485577145367365
2023-05-10T21:45:01.572Z,61.567016388552226
2023-05-10T22:00:02.196Z,61.59792752464788
2023-05-10T22:15:10.464Z,61.6514685662908
2023-05-10T22:30:01.784Z,61.60950151059272
2023-05-10T22:45:02.402Z,61.83097959885835
2023-05-10T23:00:02.061Z,61.97732860959146
2023-05-10T23:15:01.684Z,62.24601017498307
2023-05-10T23:30:02.360Z,62.34146880730082
2023-05-10T23:45:01.967Z,62.34468483323253
